sensor_id;sensor_type;location;lat;lon;timestamp;temperature;humidity
3690;DHT22;1861;50.240;8.596;2023-03-14T00:00:36;10.70;99.90
3690;DHT22;1861;50.240;8.596;2023-03-14T00:03:04;10.70;99.90
3690;DHT22;1861;50.240;8.596;2023-03-14T00:05:33;10.70;99.90
3690;DHT22;1861;50.240;8.596;2023-03-14T00:08:01;10.70;99.90
3690;DHT22;1861;50.240;8.596;2023-03-14T00:10:30;10.70;99.90
3690;DHT22;1861;50.240;8.596;2023-03-14T00:12:58;10.70;99.90
3690;DHT22;1861;50.240;8.596;2023-03-14T00:15:26;10.70;99.90
3690;DHT22;1861;50.240;8.596;2023-03-14T00:17:54;10.70;99.90
3690;DHT22;1861;50.240;8.596;2023-03-14T00:20:22;10.70;99.90
3690;DHT22;1861;50.240;8.596;2023-03-14T00:22:52;10.70;99.90
3690;DHT22;1861;50.240;8.596;2023-03-14T00:25:20;10.70;99.90
3690;DHT22;1861;50.240;8.596;2023-03-14T00:27:50;10.70;99.90
3690;DHT22;1861;50.240;8.596;2023-03-14T00:30:18;10.60;99.90
3690;DHT22;1861;50.240;8.596;2023-03-14T00:32:47;10.60;99.90
3690;DHT22;1861;50.240;8.596;2023-03-14T00:35:16;10.60;99.90
3690;DHT22;1861;50.240;8.596;2023-03-14T00:37:45;10.60;99.90
3690;DHT22;1861;50.240;8.596;2023-03-14T00:40:15;10.60;99.90
3690;DHT22;1861;50.240;8.596;2023-03-14T00:42:43;10.60;99.90
3690;DHT22;1861;50.240;8.596;2023-03-14T00:45:11;10.60;99.90
3690;DHT22;1861;50.240;8.596;2023-03-14T00:47:39;10.60;99.90
3690;DHT22;1861;50.240;8.596;2023-03-14T00:50:12;10.60;99.90
3690;DHT22;1861;50.240;8.596;2023-03-14T00:52:40;10.60;99.90
3690;DHT22;1861;50.240;8.596;2023-03-14T00:55:09;10.60;99.90
3690;DHT22;1861;50.240;8.596;2023-03-14T00:57:38;10.60;99.90
3690;DHT22;1861;50.240;8.596;2023-03-14T01:00:07;10.60;99.90
3690;DHT22;1861;50.240;8.596;2023-03-14T01:02:38;10.60;99.90
3690;DHT22;1861;50.240;8.596;2023-03-14T01:05:07;10.60;99.90
3690;DHT22;1861;50.240;8.596;2023-03-14T01:07:37;10.60;99.90
3690;DHT22;1861;50.240;8.596;2023-03-14T01:10:06;10.60;99.90
3690;DHT22;1861;50.240;8.596;2023-03-14T01:12:38;10.60;99.90
3690;DHT22;1861;50.240;8.596;2023-03-14T01:15:06;10.50;99.90
3690;DHT22;1861;50.240;8.596;2023-03-14T01:17:35;10.60;99.90
3690;DHT22;1861;50.240;8.596;2023-03-14T01:20:05;10.60;99.90
3690;DHT22;1861;50.240;8.596;2023-03-14T01:22:35;10.60;99.90
3690;DHT22;1861;50.240;8.596;2023-03-14T01:25:06;10.60;99.90
3690;DHT22;1861;50.240;8.596;2023-03-14T01:27:35;10.60;99.90
3690;DHT22;1861;50.240;8.596;2023-03-14T01:30:06;10.60;99.90
3690;DHT22;1861;50.240;8.596;2023-03-14T01:32:34;10.60;99.90
3690;DHT22;1861;50.240;8.596;2023-03-14T01:35:03;10.70;99.90
3690;DHT22;1861;50.240;8.596;2023-03-14T01:37:32;10.70;99.90
3690;DHT22;1861;50.240;8.596;2023-03-14T01:40:00;10.60;99.90
3690;DHT22;1861;50.240;8.596;2023-03-14T01:42:28;10.60;99.90
3690;DHT22;1861;50.240;8.596;2023-03-14T01:44:58;10.60;99.90
3690;DHT22;1861;50.240;8.596;2023-03-14T01:47:27;10.60;99.90
3690;DHT22;1861;50.240;8.596;2023-03-14T01:49:59;10.60;99.90
3690;DHT22;1861;50.240;8.596;2023-03-14T01:52:32;10.60;99.90
3690;DHT22;1861;50.240;8.596;2023-03-14T01:55:04;10.60;99.90
3690;DHT22;1861;50.240;8.596;2023-03-14T01:57:37;10.60;99.90
3690;DHT22;1861;50.240;8.596;2023-03-14T02:00:09;10.60;99.90
3690;DHT22;1861;50.240;8.596;2023-03-14T02:02:43;10.60;99.90
3690;DHT22;1861;50.240;8.596;2023-03-14T02:05:17;10.60;99.90
3690;DHT22;1861;50.240;8.596;2023-03-14T02:07:54;10.60;99.90
3690;DHT22;1861;50.240;8.596;2023-03-14T02:10:29;10.60;99.90
3690;DHT22;1861;50.240;8.596;2023-03-14T02:13:02;10.50;99.90
3690;DHT22;1861;50.240;8.596;2023-03-14T02:15:54;10.60;99.90
3690;DHT22;1861;50.240;8.596;2023-03-14T02:18:42;10.60;99.90
3690;DHT22;1861;50.240;8.596;2023-03-14T02:21:24;10.60;99.90
3690;DHT22;1861;50.240;8.596;2023-03-14T02:24:04;10.50;99.90
3690;DHT22;1861;50.240;8.596;2023-03-14T02:26:43;10.60;99.90
3690;DHT22;1861;50.240;8.596;2023-03-14T02:29:13;10.50;99.90
3690;DHT22;1861;50.240;8.596;2023-03-14T02:31:41;10.40;99.90
3690;DHT22;1861;50.240;8.596;2023-03-14T02:34:10;10.60;99.90
3690;DHT22;1861;50.240;8.596;2023-03-14T02:36:38;10.50;99.90
3690;DHT22;1861;50.240;8.596;2023-03-14T02:39:10;10.50;99.90
3690;DHT22;1861;50.240;8.596;2023-03-14T02:41:42;10.60;99.90
3690;DHT22;1861;50.240;8.596;2023-03-14T02:44:13;10.60;99.90
3690;DHT22;1861;50.240;8.596;2023-03-14T02:46:42;10.60;99.90
3690;DHT22;1861;50.240;8.596;2023-03-14T02:49:12;10.60;99.90
3690;DHT22;1861;50.240;8.596;2023-03-14T02:51:43;10.50;99.90
3690;DHT22;1861;50.240;8.596;2023-03-14T02:54:13;10.70;99.90
3690;DHT22;1861;50.240;8.596;2023-03-14T02:56:42;10.60;99.90
3690;DHT22;1861;50.240;8.596;2023-03-14T02:59:13;10.60;99.90
3690;DHT22;1861;50.240;8.596;2023-03-14T03:02:04;10.70;99.90
3690;DHT22;1861;50.240;8.596;2023-03-14T03:04:32;10.70;99.90
3690;DHT22;1861;50.240;8.596;2023-03-14T03:07:00;10.70;99.90
3690;DHT22;1861;50.240;8.596;2023-03-14T03:09:28;10.70;99.90
3690;DHT22;1861;50.240;8.596;2023-03-14T03:11:56;10.70;99.90
3690;DHT22;1861;50.240;8.596;2023-03-14T03:14:28;10.70;99.90
3690;DHT22;1861;50.240;8.596;2023-03-14T03:16:59;10.70;99.90
3690;DHT22;1861;50.240;8.596;2023-03-14T03:19:27;10.60;99.90
3690;DHT22;1861;50.240;8.596;2023-03-14T03:21:55;10.70;99.90
3690;DHT22;1861;50.240;8.596;2023-03-14T03:24:23;10.70;99.90
3690;DHT22;1861;50.240;8.596;2023-03-14T03:26:51;10.70;99.90
3690;DHT22;1861;50.240;8.596;2023-03-14T03:29:20;10.70;99.90
3690;DHT22;1861;50.240;8.596;2023-03-14T03:31:49;10.70;99.90
3690;DHT22;1861;50.240;8.596;2023-03-14T03:34:17;10.70;99.90
3690;DHT22;1861;50.240;8.596;2023-03-14T03:36:49;10.70;99.90
3690;DHT22;1861;50.240;8.596;2023-03-14T03:39:17;10.70;99.90
3690;DHT22;1861;50.240;8.596;2023-03-14T03:41:47;10.70;99.90
3690;DHT22;1861;50.240;8.596;2023-03-14T03:44:15;10.70;99.90
3690;DHT22;1861;50.240;8.596;2023-03-14T03:46:44;10.70;99.90
3690;DHT22;1861;50.240;8.596;2023-03-14T03:49:13;10.70;99.90
3690;DHT22;1861;50.240;8.596;2023-03-14T03:51:41;10.70;99.90
3690;DHT22;1861;50.240;8.596;2023-03-14T03:54:09;10.70;99.90
3690;DHT22;1861;50.240;8.596;2023-03-14T03:56:38;10.70;99.90
3690;DHT22;1861;50.240;8.596;2023-03-14T03:59:06;10.60;99.90
3690;DHT22;1861;50.240;8.596;2023-03-14T04:01:34;10.60;99.90
3690;DHT22;1861;50.240;8.596;2023-03-14T04:04:02;10.60;99.90
3690;DHT22;1861;50.240;8.596;2023-03-14T04:06:32;10.60;99.90
3690;DHT22;1861;50.240;8.596;2023-03-14T04:09:01;10.60;99.90
3690;DHT22;1861;50.240;8.596;2023-03-14T04:11:48;10.60;99.90
3690;DHT22;1861;50.240;8.596;2023-03-14T04:14:18;10.50;99.90
3690;DHT22;1861;50.240;8.596;2023-03-14T04:16:48;10.50;99.90
3690;DHT22;1861;50.240;8.596;2023-03-14T04:19:20;10.60;99.90
3690;DHT22;1861;50.240;8.596;2023-03-14T04:21:51;10.60;99.90
3690;DHT22;1861;50.240;8.596;2023-03-14T04:24:20;10.60;99.90
3690;DHT22;1861;50.240;8.596;2023-03-14T04:26:49;10.50;99.90
3690;DHT22;1861;50.240;8.596;2023-03-14T04:29:17;10.60;99.90
3690;DHT22;1861;50.240;8.596;2023-03-14T04:31:46;10.60;99.90
3690;DHT22;1861;50.240;8.596;2023-03-14T04:34:14;10.60;99.90
3690;DHT22;1861;50.240;8.596;2023-03-14T04:36:48;10.50;99.90
3690;DHT22;1861;50.240;8.596;2023-03-14T04:39:22;10.50;99.90
3690;DHT22;1861;50.240;8.596;2023-03-14T04:41:56;10.50;99.90
3690;DHT22;1861;50.240;8.596;2023-03-14T04:44:24;10.50;99.90
3690;DHT22;1861;50.240;8.596;2023-03-14T04:46:53;10.50;99.90
3690;DHT22;1861;50.240;8.596;2023-03-14T04:49:22;10.50;99.90
3690;DHT22;1861;50.240;8.596;2023-03-14T04:51:50;10.40;99.90
3690;DHT22;1861;50.240;8.596;2023-03-14T04:54:19;10.40;99.90
3690;DHT22;1861;50.240;8.596;2023-03-14T04:56:52;10.40;99.90
3690;DHT22;1861;50.240;8.596;2023-03-14T04:59:21;10.40;99.90
3690;DHT22;1861;50.240;8.596;2023-03-14T05:01:51;10.50;99.90
3690;DHT22;1861;50.240;8.596;2023-03-14T05:04:26;10.40;99.90
3690;DHT22;1861;50.240;8.596;2023-03-14T05:07:10;10.40;99.90
3690;DHT22;1861;50.240;8.596;2023-03-14T05:09:59;10.40;99.90
3690;DHT22;1861;50.240;8.596;2023-03-14T05:12:44;10.40;99.90
3690;DHT22;1861;50.240;8.596;2023-03-14T05:15:31;10.40;99.90
3690;DHT22;1861;50.240;8.596;2023-03-14T05:18:09;10.40;99.90
3690;DHT22;1861;50.240;8.596;2023-03-14T05:20:50;10.40;99.90
3690;DHT22;1861;50.240;8.596;2023-03-14T05:23:43;10.40;99.90
3690;DHT22;1861;50.240;8.596;2023-03-14T05:26:30;10.40;99.90
3690;DHT22;1861;50.240;8.596;2023-03-14T05:29:17;10.50;99.90
3690;DHT22;1861;50.240;8.596;2023-03-14T05:31:57;10.50;99.90
3690;DHT22;1861;50.240;8.596;2023-03-14T05:34:36;10.50;99.90
3690;DHT22;1861;50.240;8.596;2023-03-14T05:37:26;10.50;99.90
3690;DHT22;1861;50.240;8.596;2023-03-14T05:40:17;10.40;99.90
3690;DHT22;1861;50.240;8.596;2023-03-14T05:43:04;10.50;99.90
3690;DHT22;1861;50.240;8.596;2023-03-14T05:45:36;10.40;99.90
3690;DHT22;1861;50.240;8.596;2023-03-14T05:48:04;10.40;99.90
3690;DHT22;1861;50.240;8.596;2023-03-14T05:50:46;10.40;99.90
3690;DHT22;1861;50.240;8.596;2023-03-14T05:53:40;10.40;99.90
3690;DHT22;1861;50.240;8.596;2023-03-14T05:56:16;10.40;99.90
3690;DHT22;1861;50.240;8.596;2023-03-14T05:59:05;10.50;99.90
3690;DHT22;1861;50.240;8.596;2023-03-14T06:01:44;10.50;99.90
3690;DHT22;1861;50.240;8.596;2023-03-14T06:04:17;10.50;99.90
3690;DHT22;1861;50.240;8.596;2023-03-14T06:06:49;10.50;99.90
3690;DHT22;1861;50.240;8.596;2023-03-14T06:09:18;10.40;99.90
3690;DHT22;1861;50.240;8.596;2023-03-14T06:11:51;10.40;99.90
3690;DHT22;1861;50.240;8.596;2023-03-14T06:14:19;10.40;99.90
3690;DHT22;1861;50.240;8.596;2023-03-14T06:16:50;10.50;99.90
3690;DHT22;1861;50.240;8.596;2023-03-14T06:19:21;10.60;99.90
3690;DHT22;1861;50.240;8.596;2023-03-14T06:21:50;10.50;99.90
3690;DHT22;1861;50.240;8.596;2023-03-14T06:24:19;10.50;99.90
3690;DHT22;1861;50.240;8.596;2023-03-14T06:26:49;10.50;99.90
3690;DHT22;1861;50.240;8.596;2023-03-14T06:29:17;10.50;99.90
3690;DHT22;1861;50.240;8.596;2023-03-14T06:31:46;10.50;99.90
3690;DHT22;1861;50.240;8.596;2023-03-14T06:34:17;10.60;99.90
3690;DHT22;1861;50.240;8.596;2023-03-14T06:36:45;10.70;99.90
3690;DHT22;1861;50.240;8.596;2023-03-14T06:39:14;10.60;99.90
3690;DHT22;1861;50.240;8.596;2023-03-14T06:41:45;10.60;99.90
3690;DHT22;1861;50.240;8.596;2023-03-14T06:44:13;10.60;99.90
3690;DHT22;1861;50.240;8.596;2023-03-14T06:46:41;10.60;99.90
3690;DHT22;1861;50.240;8.596;2023-03-14T06:49:10;10.50;99.90
3690;DHT22;1861;50.240;8.596;2023-03-14T06:51:40;10.50;99.90
3690;DHT22;1861;50.240;8.596;2023-03-14T06:54:10;10.50;99.90
3690;DHT22;1861;50.240;8.596;2023-03-14T06:56:38;10.50;99.90
3690;DHT22;1861;50.240;8.596;2023-03-14T06:59:07;10.50;99.90
3690;DHT22;1861;50.240;8.596;2023-03-14T07:01:35;10.50;99.90
3690;DHT22;1861;50.240;8.596;2023-03-14T07:04:06;10.50;99.90
3690;DHT22;1861;50.240;8.596;2023-03-14T07:06:36;10.50;99.90
3690;DHT22;1861;50.240;8.596;2023-03-14T07:09:07;10.50;99.90
3690;DHT22;1861;50.240;8.596;2023-03-14T07:11:39;10.50;99.90
3690;DHT22;1861;50.240;8.596;2023-03-14T07:14:07;10.50;99.90
3690;DHT22;1861;50.240;8.596;2023-03-14T07:16:36;10.50;99.90
3690;DHT22;1861;50.240;8.596;2023-03-14T07:19:05;10.40;99.90
3690;DHT22;1861;50.240;8.596;2023-03-14T07:21:33;10.50;99.90
3690;DHT22;1861;50.240;8.596;2023-03-14T07:24:07;10.50;99.90
3690;DHT22;1861;50.240;8.596;2023-03-14T07:26:35;10.50;99.90
3690;DHT22;1861;50.240;8.596;2023-03-14T07:29:03;10.40;99.90
3690;DHT22;1861;50.240;8.596;2023-03-14T07:31:31;10.40;99.90
3690;DHT22;1861;50.240;8.596;2023-03-14T07:34:01;10.40;99.90
3690;DHT22;1861;50.240;8.596;2023-03-14T07:36:34;10.40;99.90
3690;DHT22;1861;50.240;8.596;2023-03-14T07:39:03;10.40;99.90
3690;DHT22;1861;50.240;8.596;2023-03-14T07:41:38;10.40;99.90
3690;DHT22;1861;50.240;8.596;2023-03-14T07:44:40;10.50;99.90
3690;DHT22;1861;50.240;8.596;2023-03-14T07:47:08;10.50;99.90
3690;DHT22;1861;50.240;8.596;2023-03-14T07:49:38;10.50;99.90
3690;DHT22;1861;50.240;8.596;2023-03-14T07:52:06;10.50;99.90
3690;DHT22;1861;50.240;8.596;2023-03-14T07:54:34;10.40;99.90
3690;DHT22;1861;50.240;8.596;2023-03-14T07:57:03;10.50;99.90
3690;DHT22;1861;50.240;8.596;2023-03-14T07:59:31;10.40;99.90
3690;DHT22;1861;50.240;8.596;2023-03-14T08:01:59;10.50;99.90
3690;DHT22;1861;50.240;8.596;2023-03-14T08:04:28;10.50;99.90
3690;DHT22;1861;50.240;8.596;2023-03-14T08:06:56;10.40;99.90
3690;DHT22;1861;50.240;8.596;2023-03-14T08:09:24;10.40;99.90
3690;DHT22;1861;50.240;8.596;2023-03-14T08:11:52;10.40;99.90
3690;DHT22;1861;50.240;8.596;2023-03-14T08:14:24;10.40;99.90
3690;DHT22;1861;50.240;8.596;2023-03-14T08:16:52;10.40;99.90
3690;DHT22;1861;50.240;8.596;2023-03-14T08:19:20;10.40;99.90
3690;DHT22;1861;50.240;8.596;2023-03-14T08:21:48;10.40;99.90
3690;DHT22;1861;50.240;8.596;2023-03-14T08:24:16;10.40;99.90
3690;DHT22;1861;50.240;8.596;2023-03-14T08:26:44;10.40;99.90
3690;DHT22;1861;50.240;8.596;2023-03-14T08:29:13;10.40;99.90
3690;DHT22;1861;50.240;8.596;2023-03-14T08:31:42;10.30;99.90
3690;DHT22;1861;50.240;8.596;2023-03-14T08:34:11;10.40;99.90
3690;DHT22;1861;50.240;8.596;2023-03-14T08:36:39;10.40;99.90
3690;DHT22;1861;50.240;8.596;2023-03-14T08:39:07;10.50;99.90
3690;DHT22;1861;50.240;8.596;2023-03-14T08:41:36;10.50;99.90
3690;DHT22;1861;50.240;8.596;2023-03-14T08:44:07;10.50;99.90
3690;DHT22;1861;50.240;8.596;2023-03-14T08:46:35;10.50;99.90
3690;DHT22;1861;50.240;8.596;2023-03-14T08:49:05;10.50;99.90
3690;DHT22;1861;50.240;8.596;2023-03-14T08:51:33;10.60;99.90
3690;DHT22;1861;50.240;8.596;2023-03-14T08:54:01;10.60;99.90
3690;DHT22;1861;50.240;8.596;2023-03-14T08:56:29;10.50;99.90
3690;DHT22;1861;50.240;8.596;2023-03-14T08:58:57;10.60;99.90
3690;DHT22;1861;50.240;8.596;2023-03-14T09:01:25;10.60;99.90
3690;DHT22;1861;50.240;8.596;2023-03-14T09:03:53;10.60;99.90
3690;DHT22;1861;50.240;8.596;2023-03-14T09:06:23;10.60;99.90
3690;DHT22;1861;50.240;8.596;2023-03-14T09:08:51;10.70;99.90
3690;DHT22;1861;50.240;8.596;2023-03-14T09:11:19;10.70;99.90
3690;DHT22;1861;50.240;8.596;2023-03-14T09:13:47;10.70;99.90
3690;DHT22;1861;50.240;8.596;2023-03-14T09:16:16;10.70;99.90
3690;DHT22;1861;50.240;8.596;2023-03-14T09:18:44;10.70;99.90
3690;DHT22;1861;50.240;8.596;2023-03-14T09:21:12;10.60;99.90
3690;DHT22;1861;50.240;8.596;2023-03-14T09:23:42;10.70;99.90
3690;DHT22;1861;50.240;8.596;2023-03-14T09:26:12;10.70;99.90
3690;DHT22;1861;50.240;8.596;2023-03-14T09:28:40;10.70;99.90
3690;DHT22;1861;50.240;8.596;2023-03-14T09:31:10;10.70;99.90
3690;DHT22;1861;50.240;8.596;2023-03-14T09:33:38;10.70;99.90
3690;DHT22;1861;50.240;8.596;2023-03-14T09:36:08;10.70;99.90
3690;DHT22;1861;50.240;8.596;2023-03-14T09:38:36;10.70;99.90
3690;DHT22;1861;50.240;8.596;2023-03-14T09:41:14;10.70;99.90
3690;DHT22;1861;50.240;8.596;2023-03-14T09:43:43;10.70;99.90
3690;DHT22;1861;50.240;8.596;2023-03-14T09:46:14;10.70;99.90
3690;DHT22;1861;50.240;8.596;2023-03-14T09:48:43;10.70;99.90
3690;DHT22;1861;50.240;8.596;2023-03-14T09:51:14;10.70;99.90
3690;DHT22;1861;50.240;8.596;2023-03-14T09:53:45;10.70;99.90
3690;DHT22;1861;50.240;8.596;2023-03-14T09:56:18;10.60;99.90
3690;DHT22;1861;50.240;8.596;2023-03-14T09:58:50;10.60;99.90
3690;DHT22;1861;50.240;8.596;2023-03-14T10:01:24;10.70;99.90
3690;DHT22;1861;50.240;8.596;2023-03-14T10:03:56;10.70;99.90
3690;DHT22;1861;50.240;8.596;2023-03-14T10:06:26;10.70;99.90
3690;DHT22;1861;50.240;8.596;2023-03-14T10:08:55;10.60;99.90
3690;DHT22;1861;50.240;8.596;2023-03-14T10:11:25;10.70;99.90
3690;DHT22;1861;50.240;8.596;2023-03-14T10:14:11;10.70;99.90
3690;DHT22;1861;50.240;8.596;2023-03-14T10:16:42;10.70;99.90
3690;DHT22;1861;50.240;8.596;2023-03-14T10:19:12;10.70;99.90
3690;DHT22;1861;50.240;8.596;2023-03-14T10:21:41;10.70;99.90
3690;DHT22;1861;50.240;8.596;2023-03-14T10:24:19;10.70;99.90
3690;DHT22;1861;50.240;8.596;2023-03-14T10:26:53;10.70;99.90
3690;DHT22;1861;50.240;8.596;2023-03-14T10:29:22;10.70;99.90
3690;DHT22;1861;50.240;8.596;2023-03-14T10:31:52;10.60;99.90
3690;DHT22;1861;50.240;8.596;2023-03-14T10:34:24;10.70;99.90
3690;DHT22;1861;50.240;8.596;2023-03-14T10:36:53;10.70;99.90
3690;DHT22;1861;50.240;8.596;2023-03-14T10:39:37;10.70;99.90
3690;DHT22;1861;50.240;8.596;2023-03-14T10:42:17;10.60;99.90
3690;DHT22;1861;50.240;8.596;2023-03-14T10:44:49;10.60;99.90
3690;DHT22;1861;50.240;8.596;2023-03-14T10:47:21;10.60;99.90
3690;DHT22;1861;50.240;8.596;2023-03-14T10:49:50;10.70;99.90
3690;DHT22;1861;50.240;8.596;2023-03-14T10:52:22;10.70;99.90
3690;DHT22;1861;50.240;8.596;2023-03-14T10:55:11;10.70;99.90
3690;DHT22;1861;50.240;8.596;2023-03-14T10:57:42;10.70;99.90
3690;DHT22;1861;50.240;8.596;2023-03-14T11:00:15;10.70;99.90
3690;DHT22;1861;50.240;8.596;2023-03-14T11:02:54;10.80;99.90
3690;DHT22;1861;50.240;8.596;2023-03-14T11:05:30;10.80;99.90
3690;DHT22;1861;50.240;8.596;2023-03-14T11:08:02;10.80;99.90
3690;DHT22;1861;50.240;8.596;2023-03-14T11:10:36;10.80;99.90
3690;DHT22;1861;50.240;8.596;2023-03-14T11:13:15;10.80;99.90
3690;DHT22;1861;50.240;8.596;2023-03-14T11:15:50;10.80;99.90
3690;DHT22;1861;50.240;8.596;2023-03-14T11:21:32;10.80;99.90
3690;DHT22;1861;50.240;8.596;2023-03-14T11:24:17;10.80;99.90
3690;DHT22;1861;50.240;8.596;2023-03-14T11:26:51;10.70;99.90
3690;DHT22;1861;50.240;8.596;2023-03-14T11:29:28;10.80;99.90
3690;DHT22;1861;50.240;8.596;2023-03-14T11:32:02;10.80;99.90
3690;DHT22;1861;50.240;8.596;2023-03-14T11:34:38;10.80;99.90
3690;DHT22;1861;50.240;8.596;2023-03-14T11:37:13;10.80;99.90
3690;DHT22;1861;50.240;8.596;2023-03-14T11:39:46;10.80;99.90
3690;DHT22;1861;50.240;8.596;2023-03-14T11:42:19;10.80;99.90
3690;DHT22;1861;50.240;8.596;2023-03-14T11:44:50;10.70;99.90
3690;DHT22;1861;50.240;8.596;2023-03-14T11:47:21;10.80;99.90
3690;DHT22;1861;50.240;8.596;2023-03-14T11:49:56;10.80;99.90
3690;DHT22;1861;50.240;8.596;2023-03-14T11:52:29;10.80;99.90
3690;DHT22;1861;50.240;8.596;2023-03-14T11:55:02;10.80;99.90
3690;DHT22;1861;50.240;8.596;2023-03-14T11:57:32;10.80;99.90
3690;DHT22;1861;50.240;8.596;2023-03-14T12:00:06;10.80;99.90
3690;DHT22;1861;50.240;8.596;2023-03-14T12:02:46;10.90;99.90
3690;DHT22;1861;50.240;8.596;2023-03-14T12:05:40;10.80;99.90
3690;DHT22;1861;50.240;8.596;2023-03-14T12:08:42;10.70;99.90
3690;DHT22;1861;50.240;8.596;2023-03-14T12:11:15;10.60;99.90
3690;DHT22;1861;50.240;8.596;2023-03-14T12:13:47;10.60;99.90
3690;DHT22;1861;50.240;8.596;2023-03-14T12:16:35;10.60;99.90
3690;DHT22;1861;50.240;8.596;2023-03-14T12:22:23;10.60;99.90
3690;DHT22;1861;50.240;8.596;2023-03-14T12:24:54;10.50;99.90
3690;DHT22;1861;50.240;8.596;2023-03-14T12:27:44;10.60;99.90
3690;DHT22;1861;50.240;8.596;2023-03-14T12:30:31;10.60;99.90
3690;DHT22;1861;50.240;8.596;2023-03-14T12:33:29;10.50;99.90
3690;DHT22;1861;50.240;8.596;2023-03-14T12:36:00;10.60;99.90
3690;DHT22;1861;50.240;8.596;2023-03-14T12:38:37;10.50;99.90
3690;DHT22;1861;50.240;8.596;2023-03-14T12:41:15;10.70;99.90
3690;DHT22;1861;50.240;8.596;2023-03-14T12:43:45;10.60;99.90
3690;DHT22;1861;50.240;8.596;2023-03-14T12:46:20;10.70;99.90
3690;DHT22;1861;50.240;8.596;2023-03-14T12:48:54;10.60;99.90
3690;DHT22;1861;50.240;8.596;2023-03-14T12:51:29;10.60;99.90
3690;DHT22;1861;50.240;8.596;2023-03-14T12:54:26;10.80;99.90
3690;DHT22;1861;50.240;8.596;2023-03-14T12:57:06;10.60;99.90
3690;DHT22;1861;50.240;8.596;2023-03-14T12:59:40;10.60;99.90
3690;DHT22;1861;50.240;8.596;2023-03-14T13:02:24;10.80;99.90
3690;DHT22;1861;50.240;8.596;2023-03-14T13:05:02;10.70;99.90
3690;DHT22;1861;50.240;8.596;2023-03-14T13:08:01;10.50;99.90
3690;DHT22;1861;50.240;8.596;2023-03-14T13:10:30;10.60;99.90
3690;DHT22;1861;50.240;8.596;2023-03-14T13:13:15;10.80;99.90
3690;DHT22;1861;50.240;8.596;2023-03-14T13:15:47;10.80;99.90
3690;DHT22;1861;50.240;8.596;2023-03-14T13:18:23;10.80;99.90
3690;DHT22;1861;50.240;8.596;2023-03-14T13:20:59;10.80;99.90
3690;DHT22;1861;50.240;8.596;2023-03-14T13:23:31;10.70;99.90
3690;DHT22;1861;50.240;8.596;2023-03-14T13:26:00;10.60;99.90
3690;DHT22;1861;50.240;8.596;2023-03-14T13:28:29;10.60;99.90
3690;DHT22;1861;50.240;8.596;2023-03-14T13:31:00;10.60;99.90
3690;DHT22;1861;50.240;8.596;2023-03-14T13:33:29;10.70;99.90
3690;DHT22;1861;50.240;8.596;2023-03-14T13:36:02;10.50;99.90
3690;DHT22;1861;50.240;8.596;2023-03-14T13:38:32;10.50;99.90
3690;DHT22;1861;50.240;8.596;2023-03-14T13:41:03;10.60;99.90
3690;DHT22;1861;50.240;8.596;2023-03-14T13:43:33;10.60;99.90
3690;DHT22;1861;50.240;8.596;2023-03-14T13:46:04;10.40;99.90
3690;DHT22;1861;50.240;8.596;2023-03-14T13:48:38;10.30;99.90
3690;DHT22;1861;50.240;8.596;2023-03-14T13:51:12;10.40;99.90
3690;DHT22;1861;50.240;8.596;2023-03-14T13:53:45;10.40;99.90
3690;DHT22;1861;50.240;8.596;2023-03-14T13:56:16;10.60;99.90
3690;DHT22;1861;50.240;8.596;2023-03-14T13:58:45;10.70;99.90
3690;DHT22;1861;50.240;8.596;2023-03-14T14:01:16;10.80;99.90
3690;DHT22;1861;50.240;8.596;2023-03-14T14:03:47;11.00;99.90
3690;DHT22;1861;50.240;8.596;2023-03-14T14:06:30;10.90;99.90
3690;DHT22;1861;50.240;8.596;2023-03-14T14:09:00;10.90;99.90
3690;DHT22;1861;50.240;8.596;2023-03-14T14:11:37;10.80;99.90
3690;DHT22;1861;50.240;8.596;2023-03-14T14:14:19;10.90;99.90
3690;DHT22;1861;50.240;8.596;2023-03-14T14:16:49;10.70;99.90
3690;DHT22;1861;50.240;8.596;2023-03-14T14:19:21;10.90;99.90
3690;DHT22;1861;50.240;8.596;2023-03-14T14:21:53;10.90;99.90
3690;DHT22;1861;50.240;8.596;2023-03-14T14:24:24;10.70;99.90
3690;DHT22;1861;50.240;8.596;2023-03-14T14:26:53;10.60;99.90
3690;DHT22;1861;50.240;8.596;2023-03-14T14:29:26;10.70;99.90
3690;DHT22;1861;50.240;8.596;2023-03-14T14:32:02;10.60;99.90
3690;DHT22;1861;50.240;8.596;2023-03-14T14:34:38;10.50;99.90
3690;DHT22;1861;50.240;8.596;2023-03-14T14:37:18;10.20;99.90
3690;DHT22;1861;50.240;8.596;2023-03-14T14:39:48;10.50;99.90
3690;DHT22;1861;50.240;8.596;2023-03-14T14:42:18;10.70;99.90
3690;DHT22;1861;50.240;8.596;2023-03-14T14:44:50;10.70;99.90
3690;DHT22;1861;50.240;8.596;2023-03-14T14:47:21;10.80;99.90
3690;DHT22;1861;50.240;8.596;2023-03-14T14:49:51;10.70;99.90
3690;DHT22;1861;50.240;8.596;2023-03-14T14:52:22;10.50;99.90
3690;DHT22;1861;50.240;8.596;2023-03-14T14:54:52;10.40;99.90
3690;DHT22;1861;50.240;8.596;2023-03-14T14:57:23;10.30;99.90
3690;DHT22;1861;50.240;8.596;2023-03-14T14:59:55;10.30;99.90
3690;DHT22;1861;50.240;8.596;2023-03-14T15:02:29;10.10;99.90
3690;DHT22;1861;50.240;8.596;2023-03-14T15:04:57;10.20;99.90
3690;DHT22;1861;50.240;8.596;2023-03-14T15:07:27;10.10;99.90
3690;DHT22;1861;50.240;8.596;2023-03-14T15:09:55;10.20;99.90
3690;DHT22;1861;50.240;8.596;2023-03-14T15:12:23;10.20;99.90
3690;DHT22;1861;50.240;8.596;2023-03-14T15:14:51;10.20;99.90
3690;DHT22;1861;50.240;8.596;2023-03-14T15:17:19;10.20;99.90
3690;DHT22;1861;50.240;8.596;2023-03-14T15:19:47;10.10;99.90
3690;DHT22;1861;50.240;8.596;2023-03-14T15:22:15;10.10;99.90
3690;DHT22;1861;50.240;8.596;2023-03-14T15:24:45;10.00;99.90
3690;DHT22;1861;50.240;8.596;2023-03-14T15:27:14;9.70;99.90
3690;DHT22;1861;50.240;8.596;2023-03-14T15:29:43;9.60;99.90
3690;DHT22;1861;50.240;8.596;2023-03-14T15:32:12;9.40;99.90
3690;DHT22;1861;50.240;8.596;2023-03-14T15:34:40;9.40;99.90
3690;DHT22;1861;50.240;8.596;2023-03-14T15:37:11;9.30;99.90
3690;DHT22;1861;50.240;8.596;2023-03-14T15:39:39;9.50;99.90
3690;DHT22;1861;50.240;8.596;2023-03-14T15:42:09;9.30;99.90
3690;DHT22;1861;50.240;8.596;2023-03-14T15:44:37;9.20;99.90
3690;DHT22;1861;50.240;8.596;2023-03-14T15:47:08;9.40;99.90
3690;DHT22;1861;50.240;8.596;2023-03-14T15:49:36;9.30;99.90
3690;DHT22;1861;50.240;8.596;2023-03-14T15:52:04;9.20;99.90
3690;DHT22;1861;50.240;8.596;2023-03-14T15:54:34;9.30;99.90
3690;DHT22;1861;50.240;8.596;2023-03-14T15:57:03;9.30;99.90
3690;DHT22;1861;50.240;8.596;2023-03-14T15:59:34;9.30;99.90
3690;DHT22;1861;50.240;8.596;2023-03-14T16:02:02;9.40;99.90
3690;DHT22;1861;50.240;8.596;2023-03-14T16:04:31;9.50;99.90
3690;DHT22;1861;50.240;8.596;2023-03-14T16:06:59;9.50;99.90
3690;DHT22;1861;50.240;8.596;2023-03-14T16:09:27;9.40;99.90
3690;DHT22;1861;50.240;8.596;2023-03-14T16:11:55;9.30;99.90
3690;DHT22;1861;50.240;8.596;2023-03-14T16:14:23;9.10;99.90
3690;DHT22;1861;50.240;8.596;2023-03-14T16:16:53;9.10;99.90
3690;DHT22;1861;50.240;8.596;2023-03-14T16:19:21;9.00;99.90
3690;DHT22;1861;50.240;8.596;2023-03-14T16:21:49;9.00;99.90
3690;DHT22;1861;50.240;8.596;2023-03-14T16:24:18;9.10;99.90
3690;DHT22;1861;50.240;8.596;2023-03-14T16:26:46;9.10;99.90
3690;DHT22;1861;50.240;8.596;2023-03-14T16:29:14;9.10;99.90
3690;DHT22;1861;50.240;8.596;2023-03-14T16:31:42;9.00;99.90
3690;DHT22;1861;50.240;8.596;2023-03-14T16:34:12;9.00;99.90
3690;DHT22;1861;50.240;8.596;2023-03-14T16:36:40;9.00;99.90
3690;DHT22;1861;50.240;8.596;2023-03-14T16:39:08;9.00;99.90